createdAt,value
2018-12-13T00:00:40.000Z,101060
2018-12-13T00:02:40.000Z,101055
2018-12-13T00:03:40.000Z,101068
2018-12-13T00:05:40.000Z,101060
2018-12-13T00:07:25.000Z,101063
2018-12-13T00:08:40.000Z,101068
2018-12-13T00:09:40.000Z,101062
2018-12-13T00:11:40.000Z,101059
2018-12-13T00:13:40.000Z,101060
2018-12-13T00:15:40.000Z,101057
2018-12-13T00:17:25.000Z,101064
2018-12-13T00:18:40.000Z,101051
2018-12-13T00:19:40.000Z,101052
2018-12-13T00:21:40.000Z,101051
2018-12-13T00:23:40.000Z,101051
2018-12-13T00:25:40.000Z,101048
2018-12-13T00:26:40.000Z,101045
2018-12-13T00:28:40.000Z,101044
2018-12-13T00:29:40.000Z,101042
2018-12-13T00:31:40.000Z,101042
2018-12-13T00:33:40.000Z,101043
2018-12-13T00:34:40.000Z,101035
2018-12-13T00:36:40.000Z,101036
2018-12-13T00:37:40.000Z,101035
2018-12-13T00:39:40.000Z,101040
2018-12-13T00:40:40.000Z,101039
2018-12-13T00:42:40.000Z,101040
2018-12-13T00:43:40.000Z,101038
2018-12-13T00:45:40.000Z,101043
2018-12-13T00:47:40.000Z,101044
2018-12-13T00:48:40.000Z,101044
2018-12-13T00:50:40.000Z,101039
2018-12-13T00:51:40.000Z,101039
2018-12-13T00:53:40.000Z,101035
2018-12-13T00:55:40.000Z,101039
2018-12-13T00:57:40.000Z,101042
2018-12-13T00:58:40.000Z,101035
2018-12-13T00:59:40.000Z,101039
2018-12-13T01:01:40.000Z,101035
2018-12-13T01:02:40.000Z,101036
2018-12-13T01:04:40.000Z,101033
2018-12-13T01:05:40.000Z,101034
2018-12-13T01:07:40.000Z,101027
2018-12-13T01:09:40.000Z,101035
2018-12-13T01:10:40.000Z,101030
2018-12-13T01:12:40.000Z,101027
2018-12-13T01:13:40.000Z,101024
2018-12-13T01:15:40.000Z,101016
2018-12-13T01:16:40.000Z,101013
2018-12-13T01:18:40.000Z,101011
2018-12-13T01:20:40.000Z,101010
2018-12-13T01:21:40.000Z,101010
2018-12-13T01:23:40.000Z,101008
2018-12-13T01:25:25.000Z,101000
2018-12-13T01:26:40.000Z,101003
2018-12-13T01:28:40.000Z,100997
2018-12-13T01:30:40.000Z,100994
2018-12-13T01:32:25.000Z,100998
2018-12-13T01:33:25.000Z,100999
2018-12-13T01:34:40.000Z,100998
2018-12-13T01:36:40.000Z,100992
2018-12-13T01:37:40.000Z,100996
2018-12-13T01:39:40.000Z,101002
2018-12-13T01:40:40.000Z,101000
2018-12-13T01:42:40.000Z,100997
2018-12-13T01:43:40.000Z,100998
2018-12-13T01:44:40.000Z,101002
2018-12-13T01:46:41.000Z,100998
2018-12-13T01:47:41.000Z,100997
2018-12-13T01:49:41.000Z,100998
2018-12-13T01:51:41.000Z,101003
2018-12-13T01:52:41.000Z,101002
2018-12-13T01:54:10.000Z,101006
2018-12-13T01:55:41.000Z,100995
2018-12-13T01:56:41.000Z,100997
2018-12-13T01:58:41.000Z,101002
2018-12-13T02:00:26.000Z,101008
2018-12-13T02:01:41.000Z,101008
2018-12-13T02:03:41.000Z,101009
2018-12-13T02:05:26.000Z,101005
2018-12-13T02:06:41.000Z,101006
2018-12-13T02:08:41.000Z,100997
2018-12-13T02:10:41.000Z,100998
2018-12-13T02:11:41.000Z,100999
2018-12-13T02:13:41.000Z,100994
2018-12-13T02:15:41.000Z,100993
2018-12-13T02:17:41.000Z,100995
2018-12-13T02:19:26.000Z,100998
2018-12-13T02:20:41.000Z,100996
2018-12-13T02:22:26.000Z,100992
2018-12-13T02:23:41.000Z,100995
2018-12-13T02:24:41.000Z,100997
2018-12-13T02:26:41.000Z,100996
2018-12-13T02:28:41.000Z,100991
2018-12-13T02:30:41.000Z,100986
2018-12-13T02:32:41.000Z,100988
2018-12-13T02:33:41.000Z,100983
2018-12-13T02:35:26.000Z,100979
2018-12-13T02:36:41.000Z,100975
2018-12-13T02:38:41.000Z,100973
2018-12-13T02:40:41.000Z,100973
2018-12-13T02:41:41.000Z,100975
2018-12-13T02:43:41.000Z,100974
2018-12-13T02:45:41.000Z,100973
2018-12-13T02:46:41.000Z,100968
2018-12-13T02:48:41.000Z,100966
2018-12-13T02:50:25.000Z,100970
2018-12-13T02:51:40.000Z,100972
2018-12-13T02:53:40.000Z,100970
2018-12-13T02:54:40.000Z,100969
2018-12-13T02:56:40.000Z,100961
2018-12-13T02:58:40.000Z,100957
2018-12-13T03:00:25.000Z,100958
2018-12-13T03:01:40.000Z,100957
2018-12-13T03:02:40.000Z,100955
2018-12-13T03:04:25.000Z,100954
2018-12-13T03:05:40.000Z,100950
2018-12-13T03:07:10.000Z,100954
2018-12-13T03:08:40.000Z,100952
2018-12-13T03:09:40.000Z,100947
2018-12-13T03:47:38.000Z,100934
2018-12-13T03:49:09.000Z,100933
2018-12-13T03:50:24.000Z,100932
2018-12-13T03:51:24.000Z,100930
2018-12-13T03:52:24.000Z,100926
2018-12-13T03:54:24.000Z,100927
2018-12-13T03:55:24.000Z,100925
2018-12-13T03:57:24.000Z,100927
2018-12-13T03:58:24.000Z,100922
2018-12-13T04:00:24.000Z,100918
2018-12-13T04:02:09.000Z,100919
2018-12-13T04:04:24.000Z,100924
2018-12-13T04:06:24.000Z,100927
2018-12-13T04:08:24.000Z,100921
2018-12-13T04:09:24.000Z,100921
2018-12-13T04:11:24.000Z,100922
2018-12-13T04:12:24.000Z,100922
2018-12-13T04:14:24.000Z,100912
2018-12-13T04:16:24.000Z,100920
2018-12-13T04:18:24.000Z,100915
2018-12-13T04:20:24.000Z,100920
2018-12-13T04:22:24.000Z,100914
2018-12-13T04:24:24.000Z,100915
2018-12-13T04:26:24.000Z,100911
2018-12-13T04:27:24.000Z,100910
2018-12-13T04:29:25.000Z,100911
2018-12-13T04:31:09.000Z,100908
2018-12-13T04:32:24.000Z,100902
2018-12-13T04:33:54.000Z,100907
2018-12-13T04:35:24.000Z,100903
2018-12-13T04:37:24.000Z,100897
2018-12-13T04:39:24.000Z,100899
2018-12-13T04:41:24.000Z,100897
2018-12-13T04:43:24.000Z,100897
2018-12-13T04:45:09.000Z,100896
2018-12-13T04:46:24.000Z,100892
2018-12-13T04:48:24.000Z,100891
2018-12-13T04:50:09.000Z,100895
2018-12-13T04:51:24.000Z,100889
2018-12-13T04:53:24.000Z,100893
2018-12-13T04:55:25.000Z,100891
2018-12-13T04:56:25.000Z,100892
2018-12-13T04:57:25.000Z,100893
2018-12-13T04:59:10.000Z,100885
2018-12-13T05:00:25.000Z,100885
2018-12-13T05:02:25.000Z,100882
2018-12-13T05:04:25.000Z,100882
2018-12-13T05:06:25.000Z,100885
2018-12-13T05:07:25.000Z,100880
2018-12-13T05:09:25.000Z,100878
2018-12-13T05:10:25.000Z,100880
2018-12-13T05:11:25.000Z,100885
2018-12-13T05:13:25.000Z,100879
2018-12-13T05:15:25.000Z,100878
2018-12-13T05:17:25.000Z,100883
2018-12-13T05:18:25.000Z,100880
2018-12-13T05:20:25.000Z,100879
2018-12-13T05:21:25.000Z,100881
2018-12-13T05:23:25.000Z,100883
2018-12-13T05:24:25.000Z,100876
2018-12-13T05:26:25.000Z,100879
2018-12-13T05:27:25.000Z,100874
2018-12-13T05:29:25.000Z,100877
2018-12-13T05:31:25.000Z,100875
2018-12-13T05:33:10.000Z,100870
2018-12-13T05:34:25.000Z,100874
2018-12-13T05:35:54.000Z,100875
2018-12-13T05:37:25.000Z,100879
2018-12-13T05:39:25.000Z,100871
2018-12-13T05:41:25.000Z,100868
2018-12-13T05:43:25.000Z,100871
2018-12-13T05:45:25.000Z,100864
2018-12-13T05:46:25.000Z,100870
2018-12-13T05:48:25.000Z,100869
2018-12-13T05:50:25.000Z,100873
2018-12-13T05:52:25.000Z,100873
2018-12-13T05:54:25.000Z,100873
2018-12-13T05:56:25.000Z,100872
2018-12-13T05:57:25.000Z,100876
2018-12-13T05:59:25.000Z,100879
2018-12-13T06:00:25.000Z,100876
2018-12-13T06:02:25.000Z,100881
2018-12-13T06:04:25.000Z,100883
2018-12-13T06:05:25.000Z,100884
2018-12-13T06:06:25.000Z,100889
2018-12-13T06:08:25.000Z,100887
2018-12-13T06:10:25.000Z,100889
2018-12-13T06:12:25.000Z,100882
2018-12-13T06:14:10.000Z,100890
2018-12-13T06:15:25.000Z,100892
2018-12-13T06:17:25.000Z,100889
2018-12-13T06:18:25.000Z,100897
2018-12-13T06:20:25.000Z,100893
2018-12-13T06:22:10.000Z,100897
2018-12-13T06:23:25.000Z,100893
2018-12-13T06:25:10.000Z,100893
2018-12-13T06:26:25.000Z,100896
2018-12-13T06:28:10.000Z,100901
2018-12-13T06:29:25.000Z,100904
2018-12-13T06:31:25.000Z,100904
2018-12-13T06:32:25.000Z,100903
2018-12-13T06:34:25.000Z,100907
2018-12-13T06:35:25.000Z,100909
2018-12-13T06:37:10.000Z,100905
2018-12-13T06:39:25.000Z,100909
2018-12-13T06:40:55.000Z,100910
2018-12-13T06:42:25.000Z,100908
2018-12-13T06:44:25.000Z,100916
2018-12-13T06:46:25.000Z,100919
2018-12-13T06:48:25.000Z,100913
2018-12-13T06:50:10.000Z,100909
2018-12-13T06:51:25.000Z,100914
2018-12-13T06:52:25.000Z,100911
2018-12-13T06:54:25.000Z,100905
2018-12-13T06:56:10.000Z,100904
2018-12-13T06:57:25.000Z,100902
2018-12-13T06:59:25.000Z,100904
2018-12-13T07:00:25.000Z,100900
2018-12-13T07:01:25.000Z,100905
2018-12-13T07:03:25.000Z,100893
2018-12-13T07:04:25.000Z,100892
2018-12-13T07:06:25.000Z,100897
2018-12-13T07:08:09.000Z,100898
2018-12-13T07:09:25.000Z,100896
2018-12-13T07:11:25.000Z,100901
2018-12-13T07:13:25.000Z,100898
2018-12-13T07:14:25.000Z,100894
2018-12-13T07:16:25.000Z,100900
2018-12-13T07:18:25.000Z,100901
2018-12-13T07:20:25.000Z,100899
2018-12-13T07:22:25.000Z,100901
2018-12-13T07:24:25.000Z,100895
2018-12-13T07:26:25.000Z,100899
2018-12-13T07:28:25.000Z,100900
2018-12-13T07:30:25.000Z,100903
2018-12-13T07:31:25.000Z,100897
2018-12-13T07:33:09.000Z,100901
2018-12-13T07:34:25.000Z,100903
2018-12-13T07:36:25.000Z,100902
2018-12-13T07:38:10.000Z,100902
2018-12-13T07:39:25.000Z,100908
2018-12-13T07:40:25.000Z,100908
2018-12-13T07:42:25.000Z,100910
2018-12-13T07:43:25.000Z,100914
2018-12-13T07:45:25.000Z,100912
2018-12-13T07:47:25.000Z,100919
2018-12-13T07:48:55.000Z,100912
2018-12-13T07:50:25.000Z,100915
2018-12-13T07:51:25.000Z,100913
2018-12-13T07:52:25.000Z,100915
2018-12-13T07:53:25.000Z,100914
2018-12-13T07:54:54.000Z,100914
2018-12-13T07:56:25.000Z,100912
2018-12-13T07:57:25.000Z,100910
2018-12-13T07:59:10.000Z,100918
2018-12-13T08:00:25.000Z,100920
2018-12-13T08:01:25.000Z,100920
2018-12-13T08:03:09.000Z,100917
2018-12-13T08:04:25.000Z,100920
2018-12-13T08:05:25.000Z,100921
2018-12-13T08:06:25.000Z,100916
2018-12-13T08:08:09.000Z,100916
2018-12-13T08:09:25.000Z,100917
2018-12-13T08:11:25.000Z,100917
2018-12-13T08:13:25.000Z,100919
2018-12-13T08:15:25.000Z,100917
2018-12-13T08:17:09.000Z,100920
2018-12-13T08:19:25.000Z,100922
2018-12-13T08:21:25.000Z,100923
2018-12-13T08:22:25.000Z,100927
2018-12-13T08:24:09.000Z,100925
2018-12-13T08:25:25.000Z,100924
2018-12-13T08:27:25.000Z,100933
2018-12-13T08:29:25.000Z,100931
2018-12-13T08:31:25.000Z,100922
2018-12-13T08:32:25.000Z,100923
2018-12-13T08:34:25.000Z,100929
2018-12-13T08:36:25.000Z,100927
2018-12-13T08:38:25.000Z,100925
2018-12-13T08:40:10.000Z,100931
2018-12-13T08:41:25.000Z,100930
2018-12-13T08:43:25.000Z,100929
2018-12-13T08:44:25.000Z,100926
2018-12-13T08:46:09.000Z,100927
2018-12-13T08:47:25.000Z,100928
2018-12-13T08:49:25.000Z,100924
2018-12-13T08:51:25.000Z,100921
2018-12-13T08:52:25.000Z,100925
2018-12-13T08:53:25.000Z,100921
2018-12-13T08:55:25.000Z,100924
2018-12-13T08:56:25.000Z,100912
2018-12-13T08:58:25.000Z,100917
2018-12-13T09:00:10.000Z,100923
2018-12-13T09:02:25.000Z,100916
2018-12-13T09:03:25.000Z,100919
2018-12-13T09:05:25.000Z,100916
2018-12-13T09:07:10.000Z,100923
2018-12-13T09:08:25.000Z,100917
2018-12-13T09:10:09.000Z,100931
2018-12-13T09:11:24.000Z,100916
2018-12-13T09:12:24.000Z,100916
2018-12-13T09:14:24.000Z,100911
2018-12-13T09:16:24.000Z,100915
2018-12-13T09:18:24.000Z,100909
2018-12-13T09:20:24.000Z,100913
2018-12-13T09:21:55.000Z,100915
2018-12-13T09:23:25.000Z,100911
2018-12-13T09:25:09.000Z,100905
2018-12-13T09:26:24.000Z,100914
2018-12-13T09:27:24.000Z,100905
2018-12-13T09:29:24.000Z,100909
2018-12-13T09:30:24.000Z,100910
2018-12-13T09:31:24.000Z,100912
2018-12-13T09:33:09.000Z,100908
2018-12-13T09:34:24.000Z,100912
2018-12-13T09:36:24.000Z,100915
2018-12-13T09:38:24.000Z,100903
2018-12-13T09:40:09.000Z,100905
2018-12-13T09:41:24.000Z,100910
2018-12-13T09:43:24.000Z,100920
2018-12-13T09:44:24.000Z,100913
2018-12-13T09:46:09.000Z,100913
2018-12-13T09:47:24.000Z,100911
2018-12-13T09:48:24.000Z,100903
2018-12-13T09:50:24.000Z,100906
2018-12-13T09:52:24.000Z,100904
2018-12-13T09:54:24.000Z,100909
2018-12-13T09:56:09.000Z,100913
2018-12-13T09:57:24.000Z,100906
2018-12-13T09:58:24.000Z,100902
2018-12-13T10:00:24.000Z,100904
2018-12-13T10:01:24.000Z,100905
2018-12-13T10:03:09.000Z,100898
2018-12-13T10:04:24.000Z,100897
2018-12-13T10:06:24.000Z,100899
2018-12-13T10:08:24.000Z,100897
2018-12-13T10:09:24.000Z,100899
2018-12-13T10:11:24.000Z,100899
2018-12-13T10:12:24.000Z,100896
2018-12-13T10:14:09.000Z,100897
2018-12-13T10:15:25.000Z,100897
2018-12-13T10:17:25.000Z,100890
2018-12-13T10:19:25.000Z,100892
2018-12-13T10:20:25.000Z,100897
2018-12-13T10:21:25.000Z,100894
2018-12-13T10:23:25.000Z,100886
2018-12-13T10:24:25.000Z,100887
2018-12-13T10:25:55.000Z,100889
2018-12-13T10:27:25.000Z,100888
2018-12-13T10:28:25.000Z,100892
2018-12-13T10:30:25.000Z,100890
2018-12-13T10:32:25.000Z,100898
2018-12-13T10:33:25.000Z,100889
2018-12-13T10:35:09.000Z,100882
2018-12-13T10:36:24.000Z,100878
2018-12-13T10:38:25.000Z,100880
2018-12-13T10:40:25.000Z,100882
2018-12-13T10:41:25.000Z,100871
2018-12-13T10:43:09.000Z,100866
2018-12-13T10:44:09.000Z,100870
2018-12-13T10:45:10.000Z,100862
2018-12-13T10:47:25.000Z,100870
2018-12-13T10:49:25.000Z,100866
2018-12-13T10:50:25.000Z,100859
2018-12-13T10:52:25.000Z,100858
2018-12-13T10:54:09.000Z,100862
2018-12-13T10:55:25.000Z,100865
2018-12-13T10:57:25.000Z,100867
2018-12-13T10:58:25.000Z,100859
2018-12-13T10:59:25.000Z,100854
2018-12-13T11:01:25.000Z,100855
2018-12-13T11:02:25.000Z,100866
2018-12-13T11:04:25.000Z,100852
2018-12-13T11:06:25.000Z,100848
2018-12-13T11:08:09.000Z,100839
2018-12-13T11:10:25.000Z,100846
2018-12-13T11:11:25.000Z,100842
2018-12-13T11:13:09.000Z,100846
2018-12-13T11:14:25.000Z,100841
2018-12-13T11:15:25.000Z,100845
2018-12-13T11:17:09.000Z,100844
2018-12-13T11:18:24.000Z,100839
2018-12-13T11:19:24.000Z,100832
2018-12-13T11:21:24.000Z,100840
2018-12-13T11:22:24.000Z,100841
2018-12-13T11:24:24.000Z,100834
2018-12-13T11:25:24.000Z,100840
2018-12-13T11:26:24.000Z,100834
2018-12-13T11:27:24.000Z,100835
2018-12-13T11:34:27.000Z,100821
2018-12-13T11:36:13.000Z,100827
2018-12-13T11:38:13.000Z,100822
2018-12-13T11:39:58.000Z,100817
2018-12-13T11:41:13.000Z,100812
2018-12-13T11:43:13.000Z,100806
2018-12-13T11:44:13.000Z,100810
2018-12-13T11:46:13.000Z,100824
2018-12-13T11:47:43.000Z,100806
2018-12-13T11:49:13.000Z,100812
2018-12-13T11:51:13.000Z,100808
2018-12-13T11:53:13.000Z,100818
2018-12-13T11:55:13.000Z,100819
2018-12-13T11:56:13.000Z,100813
2018-12-13T11:58:13.000Z,100815
2018-12-13T12:00:13.000Z,100821
2018-12-13T12:02:13.000Z,100806
2018-12-13T12:04:13.000Z,100798
2018-12-13T12:06:13.000Z,100797
2018-12-13T12:07:13.000Z,100797
2018-12-13T12:08:13.000Z,100792
2018-12-13T12:09:58.000Z,100790
2018-12-13T12:11:13.000Z,100792
2018-12-13T12:12:13.000Z,100797
2018-12-13T12:14:13.000Z,100793
2018-12-13T12:16:13.000Z,100780
2018-12-13T12:17:13.000Z,100779
2018-12-13T12:19:13.000Z,100784
2018-12-13T12:21:14.000Z,100780
2018-12-13T12:22:14.000Z,100780
2018-12-13T12:24:14.000Z,100780
2018-12-13T12:26:14.000Z,100774
2018-12-13T12:28:14.000Z,100768
2018-12-13T12:30:14.000Z,100768
2018-12-13T12:31:14.000Z,100768
2018-12-13T12:33:14.000Z,100767
2018-12-13T12:34:14.000Z,100763
2018-12-13T12:36:14.000Z,100770
2018-12-13T12:38:14.000Z,100761
2018-12-13T12:39:14.000Z,100758
2018-12-13T12:41:14.000Z,100761
2018-12-13T12:42:14.000Z,100758
2018-12-13T12:44:14.000Z,100760
2018-12-13T12:46:14.000Z,100759
2018-12-13T12:47:14.000Z,100753
2018-12-13T12:48:59.000Z,100754
2018-12-13T12:50:14.000Z,100761
2018-12-13T12:51:58.000Z,100762
2018-12-13T12:53:14.000Z,100755
2018-12-13T12:55:14.000Z,100751
2018-12-13T12:56:14.000Z,100754
2018-12-13T12:57:14.000Z,100752
2018-12-13T12:59:14.000Z,100754
2018-12-13T13:00:14.000Z,100745
2018-12-13T13:02:14.000Z,100741
2018-12-13T13:03:58.000Z,100740
2018-12-13T13:05:14.000Z,100737
2018-12-13T13:06:14.000Z,100734
2018-12-13T13:08:14.000Z,100736
2018-12-13T13:09:58.000Z,100741
2018-12-13T13:11:14.000Z,100739
2018-12-13T13:13:14.000Z,100734
2018-12-13T13:15:14.000Z,100724
2018-12-13T13:17:14.000Z,100728
2018-12-13T13:18:14.000Z,100725
2018-12-13T13:20:14.000Z,100728
2018-12-13T13:22:14.000Z,100726
2018-12-13T13:23:14.000Z,100727
2018-12-13T13:25:14.000Z,100722
2018-12-13T13:27:14.000Z,100725
2018-12-13T13:28:14.000Z,100720
2018-12-13T13:29:14.000Z,100724
2018-12-13T13:31:14.000Z,100725
2018-12-13T13:33:14.000Z,100722
2018-12-13T13:34:14.000Z,100729
2018-12-13T13:36:14.000Z,100727
2018-12-13T13:37:14.000Z,100722
2018-12-13T13:38:14.000Z,100722
2018-12-13T13:40:14.000Z,100723
2018-12-13T13:41:14.000Z,100729
2018-12-13T13:43:14.000Z,100729
2018-12-13T13:45:14.000Z,100731
2018-12-13T13:47:14.000Z,100725
2018-12-13T13:48:14.000Z,100730
2018-12-13T13:50:14.000Z,100736
2018-12-13T13:52:14.000Z,100734
2018-12-13T13:54:14.000Z,100734
2018-12-13T13:56:14.000Z,100727
2018-12-13T13:58:14.000Z,100738
2018-12-13T14:00:14.000Z,100738
2018-12-13T14:02:14.000Z,100743
2018-12-13T14:04:14.000Z,100738
2018-12-13T14:05:14.000Z,100739
2018-12-13T14:06:14.000Z,100743
2018-12-13T14:08:14.000Z,100741
2018-12-13T14:10:14.000Z,100752
2018-12-13T14:12:14.000Z,100743
2018-12-13T14:13:14.000Z,100744
2018-12-13T14:14:14.000Z,100746
2018-12-13T14:16:14.000Z,100752
2018-12-13T14:18:14.000Z,100744
2018-12-13T14:19:59.000Z,100752
2018-12-13T14:20:59.000Z,100747
2018-12-13T14:22:14.000Z,100749
2018-12-13T14:24:14.000Z,100751
2018-12-13T14:26:14.000Z,100737
2018-12-13T14:27:14.000Z,100746
2018-12-13T14:29:14.000Z,100752
2018-12-13T14:31:14.000Z,100748
2018-12-13T14:32:14.000Z,100747
2018-12-13T14:34:14.000Z,100747
2018-12-13T14:35:14.000Z,100754
2018-12-13T14:36:59.000Z,100753
2018-12-13T14:38:14.000Z,100744
2018-12-13T14:39:14.000Z,100745
2018-12-13T14:41:14.000Z,100741
2018-12-13T14:42:14.000Z,100743
2018-12-13T14:44:14.000Z,100752
2018-12-13T14:46:14.000Z,100738
2018-12-13T14:47:14.000Z,100739
2018-12-13T14:49:14.000Z,100745
2018-12-13T14:51:14.000Z,100741
2018-12-13T14:52:59.000Z,100745
2018-12-13T14:54:14.000Z,100748
2018-12-13T14:55:14.000Z,100747
2018-12-13T14:57:14.000Z,100750
2018-12-13T14:58:14.000Z,100750
2018-12-13T14:59:14.000Z,100745
2018-12-13T15:01:14.000Z,100738
2018-12-13T15:02:14.000Z,100744
2018-12-13T15:03:14.000Z,100744
2018-12-13T15:05:14.000Z,100740
2018-12-13T15:06:59.000Z,100742
2018-12-13T15:08:14.000Z,100743
2018-12-13T15:09:14.000Z,100750
2018-12-13T15:11:14.000Z,100744
2018-12-13T15:12:14.000Z,100751
2018-12-13T15:14:14.000Z,100754
2018-12-13T15:16:14.000Z,100747
2018-12-13T15:18:14.000Z,100746
2018-12-13T15:20:14.000Z,100741
2018-12-13T15:22:14.000Z,100745
2018-12-13T15:23:59.000Z,100741
2018-12-13T15:25:14.000Z,100742
2018-12-13T15:26:14.000Z,100742
2018-12-13T15:28:14.000Z,100744
2018-12-13T15:30:14.000Z,100750
2018-12-13T15:31:14.000Z,100741
2018-12-13T15:32:58.000Z,100758
2018-12-13T15:34:14.000Z,100748
2018-12-13T15:35:14.000Z,100754
2018-12-13T15:36:14.000Z,100754
2018-12-13T15:38:14.000Z,100758
2018-12-13T15:40:14.000Z,100755
2018-12-13T15:41:14.000Z,100751
2018-12-13T15:43:14.000Z,100753
2018-12-13T15:45:14.000Z,100750
2018-12-13T15:46:59.000Z,100747
2018-12-13T15:48:14.000Z,100741
2018-12-13T15:49:14.000Z,100744
2018-12-13T15:51:14.000Z,100748
2018-12-13T15:55:44.000Z,100752
2018-12-13T15:57:44.000Z,100757
2018-12-13T15:58:44.000Z,100748
2018-12-13T15:59:44.000Z,100767
2018-12-13T16:01:44.000Z,100751
2018-12-13T16:02:44.000Z,100752
2018-12-13T16:04:44.000Z,100753
2018-12-13T16:05:44.000Z,100748
2018-12-13T16:06:44.000Z,100753
2018-12-13T16:08:44.000Z,100747
2018-12-13T16:09:44.000Z,100752
2018-12-13T16:11:44.000Z,100756
2018-12-13T16:13:44.000Z,100756
2018-12-13T16:15:44.000Z,100758
2018-12-13T16:17:44.000Z,100760
2018-12-13T16:18:44.000Z,100751
2018-12-13T16:19:44.000Z,100750
2018-12-13T16:20:44.000Z,100757
2018-12-13T16:21:44.000Z,100746
2018-12-13T16:23:44.000Z,100745
2018-12-13T16:25:44.000Z,100740
2018-12-13T16:27:44.000Z,100737
2018-12-13T16:29:29.000Z,100738
2018-12-13T16:30:44.000Z,100740
2018-12-13T16:32:44.000Z,100734
2018-12-13T16:34:44.000Z,100734
2018-12-13T16:35:44.000Z,100738
2018-12-13T16:37:44.000Z,100735
2018-12-13T16:39:44.000Z,100739
2018-12-13T16:41:13.000Z,100753
2018-12-13T16:42:44.000Z,100741
2018-12-13T16:44:44.000Z,100744
2018-12-13T16:46:29.000Z,100743
2018-12-13T16:47:44.000Z,100746
2018-12-13T16:48:44.000Z,100742
2018-12-13T16:50:44.000Z,100740
2018-12-13T16:52:44.000Z,100734
2018-12-13T16:53:44.000Z,100747
2018-12-13T16:54:44.000Z,100742
2018-12-13T16:56:44.000Z,100733
2018-12-13T16:58:44.000Z,100735
2018-12-13T17:00:29.000Z,100743
2018-12-13T17:01:44.000Z,100743
2018-12-13T17:03:44.000Z,100743
2018-12-13T17:04:44.000Z,100742
2018-12-13T17:06:44.000Z,100743
2018-12-13T17:07:44.000Z,100742
2018-12-13T17:09:29.000Z,100739
2018-12-13T17:11:13.000Z,100739
2018-12-13T17:12:44.000Z,100737
2018-12-13T17:14:44.000Z,100740
2018-12-13T17:16:44.000Z,100735
2018-12-13T17:18:44.000Z,100736
2018-12-13T17:20:44.000Z,100736
2018-12-13T17:22:44.000Z,100739
2018-12-13T17:23:44.000Z,100760
2018-12-13T17:25:44.000Z,100738
2018-12-13T17:26:44.000Z,100739
2018-12-13T17:28:44.000Z,100739
2018-12-13T17:29:44.000Z,100734
2018-12-13T17:31:44.000Z,100740
2018-12-13T17:32:44.000Z,100738
2018-12-13T17:34:44.000Z,100731
2018-12-13T17:36:13.000Z,100741
2018-12-13T17:37:44.000Z,100736
2018-12-13T17:38:44.000Z,100728
2018-12-13T17:40:44.000Z,100727
2018-12-13T17:41:44.000Z,100732
2018-12-13T17:43:13.000Z,100724
2018-12-13T17:44:44.000Z,100729
2018-12-13T17:45:44.000Z,100726
2018-12-13T17:46:44.000Z,100730
2018-12-13T17:48:29.000Z,100726
2018-12-13T17:49:44.000Z,100730
2018-12-13T17:50:44.000Z,100729
2018-12-13T17:52:44.000Z,100731
2018-12-13T17:54:44.000Z,100739
2018-12-13T17:56:44.000Z,100726
2018-12-13T17:57:44.000Z,100733
2018-12-13T17:58:44.000Z,100739
2018-12-13T18:00:29.000Z,100735
2018-12-13T18:01:44.000Z,100730
2018-12-13T18:02:44.000Z,100726
2018-12-13T18:04:44.000Z,100730
2018-12-13T18:06:44.000Z,100735
2018-12-13T18:08:44.000Z,100728
2018-12-13T18:10:28.000Z,100730
2018-12-13T18:12:43.000Z,100738
2018-12-13T18:19:18.000Z,100752
2018-12-13T18:21:18.000Z,100742
2018-12-13T18:22:18.000Z,100747
2018-12-13T18:24:18.000Z,100749
2018-12-13T18:25:18.000Z,100746
2018-12-13T18:27:18.000Z,100745
2018-12-13T18:29:18.000Z,100748
2018-12-13T18:30:18.000Z,100762
2018-12-13T18:32:18.000Z,100743
2018-12-13T18:33:18.000Z,100743
2018-12-13T18:35:18.000Z,100738
2018-12-13T18:37:03.000Z,100738
2018-12-13T18:38:18.000Z,100728
2018-12-13T18:40:18.000Z,100729
2018-12-13T18:41:18.000Z,100732
2018-12-13T18:43:18.000Z,100737
2018-12-13T18:45:18.000Z,100736
2018-12-13T18:46:48.000Z,100731
2018-12-13T18:48:18.000Z,100733
2018-12-13T18:49:18.000Z,100729
2018-12-13T18:50:18.000Z,100731
2018-12-13T18:51:18.000Z,100729
2018-12-13T18:53:18.000Z,100735
2018-12-13T18:55:18.000Z,100736
2018-12-13T18:57:18.000Z,100728
2018-12-13T18:58:18.000Z,100732
2018-12-13T19:00:18.000Z,100736
2018-12-13T19:01:18.000Z,100744
2018-12-13T19:03:18.000Z,100739
2018-12-13T19:04:18.000Z,100739
2018-12-13T19:06:18.000Z,100742
2018-12-13T19:08:18.000Z,100742
2018-12-13T19:10:18.000Z,100743
2018-12-13T19:11:18.000Z,100740
2018-12-13T19:12:18.000Z,100737
2018-12-13T19:14:18.000Z,100728
2018-12-13T19:16:18.000Z,100734
2018-12-13T19:17:18.000Z,100734
2018-12-13T19:19:18.000Z,100740
2018-12-13T19:21:18.000Z,100759
2018-12-13T19:23:18.000Z,100740
2018-12-13T19:25:03.000Z,100742
2018-12-13T19:26:18.000Z,100763
2018-12-13T19:27:18.000Z,100755
2018-12-13T19:29:03.000Z,100758
2018-12-13T19:30:18.000Z,100758
2018-12-13T19:32:03.000Z,100752
2018-12-13T19:33:18.000Z,100755
2018-12-13T19:35:18.000Z,100754
2018-12-13T19:37:03.000Z,100755
2018-12-13T19:38:18.000Z,100755
2018-12-13T19:39:18.000Z,100759
2018-12-13T19:40:48.000Z,100758
2018-12-13T19:42:18.000Z,100762
2018-12-13T19:43:18.000Z,100764
2018-12-13T19:45:18.000Z,100767
2018-12-13T19:47:18.000Z,100767
2018-12-13T19:49:18.000Z,100762
2018-12-13T19:51:18.000Z,100763
2018-12-13T19:53:18.000Z,100764
2018-12-13T19:54:18.000Z,100763
2018-12-13T19:56:18.000Z,100768
2018-12-13T19:57:18.000Z,100766
2018-12-13T19:58:18.000Z,100770
2018-12-13T20:00:18.000Z,100763
2018-12-13T20:01:18.000Z,100770
2018-12-13T20:02:18.000Z,100769
2018-12-13T20:04:18.000Z,100767
2018-12-13T20:06:18.000Z,100773
2018-12-13T20:07:18.000Z,100766
2018-12-13T20:08:18.000Z,100764
2018-12-13T20:09:18.000Z,100768
2018-12-13T20:10:48.000Z,100769
2018-12-13T20:12:18.000Z,100777
2018-12-13T20:13:18.000Z,100775
2018-12-13T20:15:18.000Z,100789
2018-12-13T20:17:18.000Z,100787
2018-12-13T20:18:18.000Z,100789
2018-12-13T20:20:18.000Z,100783
2018-12-13T20:21:18.000Z,100784
2018-12-13T20:23:18.000Z,100781
2018-12-13T20:25:18.000Z,100788
2018-12-13T20:27:18.000Z,100789
2018-12-13T20:29:18.000Z,100784
2018-12-13T20:31:18.000Z,100778
2018-12-13T20:33:18.000Z,100784
2018-12-13T20:34:18.000Z,100781
2018-12-13T20:36:03.000Z,100778
2018-12-13T20:37:18.000Z,100787
2018-12-13T20:39:18.000Z,100781
2018-12-13T20:41:18.000Z,100787